NO-0057 weather

T√łnsberg Heliport, Hospital
T√łnsberg, Vestfold, Norway

Public forecast

Using degrees Celsius for public forecast. Weather courtesy of forecast.io.

METAR (pilot weather report)

Closest report is Sandefjord Airport, Torp, 7.1 nm (13.2 km) SW. Retrieved 2019/05/21 01:20 UTC (38 minutes ago):

ENTO 210120Z AUTO 36007KT 9999 OVC011/// 14/14 Q1010

TAF (pilot weather forecast)

Forecast is more than 12 hours old.

Closest forecast is Sandefjord Airport, Torp, 7.1 nm (13.2 km) SW. Retrieved 2019/05/20 00:57 UTC (1 day ago):

TAF ENTO 202300Z 2100/2124 36008KT 9999 BKN030 PROB30 2100/2108 2000 BR BKN003 PROB40 TEMPO 2112/2124 4000 TSRA BKN008 SCT025CB